Time;durP1;ratioP1;P1;durP2;ratioP2;P2;SDS_P1;SDS_P2;PMS_P1;PMS_P2;Temp;Humidity;BMP_temperature;BMP_pressure;BME280_temperature;BME280_humidity;BME280_pressure;Samples;Min_cycle;Max_cycle;Signal;HPM_P1;HPM_P2
2021/09/25 00:01:57;;;;;;;8.20;6.40;;;18.30;64.70;;;;;;5051765;28;20479;-62
2021/09/25 00:04:25;;;;;;;7.75;6.35;;;18.30;64.80;;;;;;5051191;28;20025;-61
2021/09/25 00:06:51;;;;;;;9.15;6.57;;;18.30;64.90;;;;;;5033637;28;20119;-61
2021/09/25 00:09:17;;;;;;;8.15;6.78;;;18.30;64.90;;;;;;5051825;28;20454;-62
2021/09/25 00:11:42;;;;;;;8.68;6.30;;;18.30;64.90;;;;;;5033940;28;20028;-62
2021/09/25 00:14:08;;;;;;;8.40;6.78;;;18.30;65.00;;;;;;5050647;28;20037;-62
2021/09/25 00:16:34;;;;;;;9.00;6.72;;;18.30;65.00;;;;;;5042447;28;20044;-62
2021/09/25 00:19:01;;;;;;;10.50;6.88;;;18.20;65.10;;;;;;5051873;28;20029;-62
2021/09/25 00:21:28;;;;;;;10.02;6.50;;;18.20;65.30;;;;;;5032865;28;20166;-64
2021/09/25 00:23:54;;;;;;;8.98;6.90;;;18.20;65.50;;;;;;5033559;28;20021;-62
2021/09/25 00:26:22;;;;;;;10.02;6.88;;;18.10;65.80;;;;;;5033094;28;20013;-63
2021/09/25 00:28:49;;;;;;;12.45;8.05;;;18.10;66.00;;;;;;5051582;28;20095;-62
2021/09/25 00:31:16;;;;;;;10.43;7.13;;;18.00;66.30;;;;;;5051712;28;20103;-62
2021/09/25 00:33:42;;;;;;;8.95;6.93;;;17.90;66.50;;;;;;5054491;28;20096;-62
2021/09/25 00:36:08;;;;;;;11.60;6.97;;;17.90;66.50;;;;;;5033543;28;20111;-61
2021/09/25 00:38:36;;;;;;;9.93;6.82;;;18.00;66.60;;;;;;5051158;28;20013;-62
2021/09/25 00:41:06;;;;;;;8.70;7.40;;;17.90;66.50;;;;;;5051376;28;20025;-62
2021/09/25 00:43:33;;;;;;;10.50;7.65;;;17.90;66.60;;;;;;5032601;28;20032;-61
2021/09/25 00:46:00;;;;;;;9.48;6.72;;;17.90;66.60;;;;;;5050700;28;20048;-62
2021/09/25 00:48:26;;;;;;;8.32;6.78;;;17.90;66.60;;;;;;5032385;28;20021;-62
2021/09/25 00:50:52;;;;;;;8.50;6.85;;;17.90;66.50;;;;;;5033706;28;20053;-61
2021/09/25 00:53:19;;;;;;;8.90;6.93;;;17.90;66.50;;;;;;5050693;28;20031;-62
2021/09/25 00:55:45;;;;;;;9.30;7.38;;;18.00;66.60;;;;;;5050851;28;20108;-61
2021/09/25 00:58:11;;;;;;;10.80;7.45;;;17.90;66.60;;;;;;5051349;28;20021;-65
2021/09/25 01:00:37;;;;;;;10.43;6.43;;;17.90;66.70;;;;;;5050563;28;20025;-62
2021/09/25 01:03:04;;;;;;;9.27;6.65;;;17.80;66.90;;;;;;5050991;28;20079;-62
2021/09/25 01:05:30;;;;;;;8.95;6.75;;;17.80;67.00;;;;;;5032258;28;20078;-62
2021/09/25 01:07:56;;;;;;;9.77;6.80;;;17.80;67.20;;;;;;5051101;28;20044;-61
2021/09/25 01:10:22;;;;;;;8.13;6.65;;;17.80;67.20;;;;;;5030707;28;20032;-62
2021/09/25 01:12:48;;;;;;;10.18;6.95;;;17.80;67.30;;;;;;5032363;28;20037;-61
2021/09/25 01:15:16;;;;;;;12.35;6.47;;;17.80;67.40;;;;;;5050961;28;20127;-62
2021/09/25 01:17:42;;;;;;;9.27;6.25;;;17.80;67.40;;;;;;5050159;28;20343;-62
2021/09/25 01:20:09;;;;;;;8.68;6.20;;;17.80;67.20;;;;;;5033073;28;20021;-62
2021/09/25 01:22:36;;;;;;;11.43;6.68;;;17.80;67.20;;;;;;5032180;28;20378;-63
2021/09/25 01:25:04;;;;;;;10.32;6.28;;;17.80;67.10;;;;;;5031266;28;20025;-61
2021/09/25 01:27:30;;;;;;;7.18;6.40;;;17.80;67.00;;;;;;5049268;28;20025;-61
2021/09/25 01:29:55;;;;;;;10.20;6.05;;;17.80;66.90;;;;;;5049852;28;20032;-61
2021/09/25 01:32:21;;;;;;;7.13;6.00;;;17.90;66.90;;;;;;5050716;28;20075;-62
2021/09/25 01:34:47;;;;;;;9.05;6.22;;;17.90;66.70;;;;;;5051084;28;20021;-61
2021/09/25 01:37:12;;;;;;;7.72;6.10;;;17.90;67.40;;;;;;5050874;28;20025;-61
2021/09/25 01:39:38;;;;;;;9.68;6.35;;;17.80;66.80;;;;;;5050282;28;20382;-62
2021/09/25 01:42:05;;;;;;;10.43;7.03;;;17.80;67.10;;;;;;5050410;28;20104;-62
2021/09/25 01:44:31;;;;;;;9.80;6.30;;;17.70;67.40;;;;;;5034983;28;20079;-62
2021/09/25 01:46:59;;;;;;;9.95;6.40;;;17.50;67.70;;;;;;5050988;28;20423;-62
2021/09/25 01:49:26;;;;;;;10.32;6.50;;;17.50;68.10;;;;;;5032695;28;20024;-62
2021/09/25 01:51:53;;;;;;;8.15;6.82;;;17.30;68.30;;;;;;5032214;28;20040;-62
2021/09/25 01:54:19;;;;;;;8.40;6.55;;;17.30;68.60;;;;;;5032947;28;20033;-62
2021/09/25 01:56:45;;;;;;;8.88;6.72;;;17.20;68.80;;;;;;5050063;28;20029;-62
2021/09/25 01:59:11;;;;;;;8.32;6.35;;;17.20;69.10;;;;;;5032675;28;20454;-61
2021/09/25 02:01:37;;;;;;;8.23;6.35;;;17.10;69.30;;;;;;5049833;28;20028;-63
2021/09/25 02:04:03;;;;;;;10.32;7.07;;;17.10;69.50;;;;;;5050459;28;20511;-61
2021/09/25 02:06:29;;;;;;;12.18;6.72;;;17.00;69.50;;;;;;5050005;28;20029;-61
2021/09/25 02:08:56;;;;;;;11.57;6.68;;;17.00;69.60;;;;;;5051027;28;20052;-62
2021/09/25 02:11:24;;;;;;;8.63;6.93;;;17.00;69.70;;;;;;5032593;28;20539;-63
2021/09/25 02:13:50;;;;;;;10.38;6.55;;;17.00;69.80;;;;;;5050286;28;20050;-62
2021/09/25 02:16:16;;;;;;;8.82;6.95;;;17.00;69.90;;;;;;5050567;28;20032;-62
2021/09/25 02:18:42;;;;;;;12.43;6.63;;;16.90;70.00;;;;;;5032266;28;20447;-62
2021/09/25 02:21:08;;;;;;;8.85;6.32;;;16.90;70.20;;;;;;5032076;28;20111;-61
2021/09/25 02:23:34;;;;;;;9.15;6.88;;;16.90;70.40;;;;;;5046197;28;20021;-61
2021/09/25 02:26:01;;;;;;;9.30;7.20;;;16.90;70.50;;;;;;5050890;28;20027;-61
2021/09/25 02:28:28;;;;;;;8.70;6.35;;;16.80;70.50;;;;;;5050624;28;20013;-62
2021/09/25 02:30:55;;;;;;;8.07;6.88;;;16.80;70.60;;;;;;5028368;28;20095;-62
2021/09/25 02:33:21;;;;;;;9.60;6.57;;;16.80;70.80;;;;;;5016634;28;20083;-61
2021/09/25 02:35:47;;;;;;;11.60;6.90;;;16.80;70.80;;;;;;5015956;28;20026;-62
2021/09/25 02:38:13;;;;;;;8.70;6.50;;;16.80;70.90;;;;;;5015591;28;20100;-60
2021/09/25 02:40:39;;;;;;;9.35;6.70;;;16.80;70.90;;;;;;5022645;28;20048;-63
2021/09/25 02:43:05;;;;;;;9.77;6.75;;;16.80;71.40;;;;;;5035149;28;20056;-62
2021/09/25 02:45:32;;;;;;;8.15;6.25;;;16.80;70.80;;;;;;5035816;28;20489;-62
2021/09/25 02:47:58;;;;;;;11.93;6.72;;;16.90;70.80;;;;;;5054093;28;20044;-62
2021/09/25 02:50:24;;;;;;;9.88;6.85;;;16.90;70.80;;;;;;5035490;28;20029;-62
2021/09/25 02:52:50;;;;;;;8.45;6.22;;;16.90;70.70;;;;;;5026842;28;20090;-62
2021/09/25 02:55:16;;;;;;;9.80;6.35;;;17.00;70.60;;;;;;5016357;28;20048;-62
2021/09/25 02:57:42;;;;;;;7.05;5.82;;;17.00;70.40;;;;;;5032505;28;20034;-62
2021/09/25 03:00:14;;;;;;;9.38;6.45;;;17.00;70.30;;;;;;5000195;28;20025;-62
2021/09/25 03:02:40;;;;;;;10.02;6.93;;;17.00;70.30;;;;;;5032127;28;20025;-63
2021/09/25 03:05:06;;;;;;;10.55;7.35;;;17.00;70.30;;;;;;5033432;28;20056;-61
2021/09/25 03:07:32;;;;;;;7.82;6.65;;;16.90;70.40;;;;;;5032866;28;20021;-62
2021/09/25 03:09:57;;;;;;;11.95;6.85;;;16.90;70.50;;;;;;5033510;28;20426;-62
2021/09/25 03:12:23;;;;;;;7.72;6.25;;;16.90;70.60;;;;;;5037395;28;20033;-62
2021/09/25 03:14:49;;;;;;;9.32;6.55;;;16.90;70.60;;;;;;5014570;28;20029;-63
2021/09/25 03:17:15;;;;;;;7.75;6.95;;;16.90;70.70;;;;;;5032472;28;20025;-62
2021/09/25 03:19:59;;;;;;;8.15;6.35;;;16.80;70.80;;;;;;4996508;28;20084;-60
2021/09/25 03:22:25;;;;;;;10.73;6.13;;;16.80;70.90;;;;;;5040350;28;20049;-62
2021/09/25 03:24:51;;;;;;;8.23;6.80;;;16.80;70.90;;;;;;5035008;28;20021;-62
2021/09/25 03:27:16;;;;;;;7.55;6.53;;;16.80;71.00;;;;;;5035386;28;20350;-61
2021/09/25 03:29:42;;;;;;;8.70;6.57;;;16.70;71.00;;;;;;5034244;28;20132;-61
2021/09/25 03:32:08;;;;;;;9.07;6.63;;;16.70;71.20;;;;;;5052422;28;20032;-61
2021/09/25 03:34:35;;;;;;;7.32;6.38;;;16.70;71.20;;;;;;5015000;28;20072;-61
2021/09/25 03:37:00;;;;;;;7.53;6.50;;;16.70;71.30;;;;;;5015555;28;20026;-62
2021/09/25 03:39:26;;;;;;;10.85;7.00;;;16.70;71.30;;;;;;5033108;28;20067;-61
2021/09/25 03:41:52;;;;;;;8.13;6.35;;;16.70;71.30;;;;;;5014999;28;20381;-63
2021/09/25 03:44:17;;;;;;;10.65;6.80;;;16.70;71.40;;;;;;5034853;28;20446;-62
2021/09/25 03:46:43;;;;;;;8.10;6.70;;;16.70;71.40;;;;;;5033972;28;20056;-62
2021/09/25 03:49:09;;;;;;;8.65;6.57;;;16.60;71.40;;;;;;5066863;28;20055;-62
2021/09/25 03:51:35;;;;;;;10.50;7.07;;;16.60;71.50;;;;;;5072085;28;20039;-61
2021/09/25 03:54:00;;;;;;;9.38;6.57;;;16.50;71.70;;;;;;5054257;28;20147;-62
2021/09/25 03:56:26;;;;;;;7.10;6.07;;;16.50;71.90;;;;;;5052505;28;20139;-62
2021/09/25 03:58:52;;;;;;;9.32;6.50;;;16.40;72.00;;;;;;5052132;28;20051;-61
2021/09/25 04:01:18;;;;;;;8.48;6.30;;;16.30;72.30;;;;;;5051656;28;20064;-61
2021/09/25 04:03:44;;;;;;;8.48;6.45;;;16.30;72.40;;;;;;5050366;28;20031;-62
2021/09/25 04:06:10;;;;;;;10.05;6.72;;;16.30;72.40;;;;;;5014826;28;20079;-61
2021/09/25 04:08:36;;;;;;;9.38;6.00;;;16.40;72.40;;;;;;5053231;28;20020;-62
2021/09/25 04:11:02;;;;;;;10.60;6.95;;;16.40;72.40;;;;;;5072231;28;20423;-62
2021/09/25 04:13:28;;;;;;;9.18;6.85;;;16.40;72.30;;;;;;5072532;28;20291;-62
2021/09/25 04:15:54;;;;;;;8.73;6.80;;;16.40;72.30;;;;;;5053137;28;20017;-61
2021/09/25 04:18:19;;;;;;;11.15;7.30;;;16.40;72.30;;;;;;5052082;28;20078;-61
2021/09/25 04:20:45;;;;;;;10.75;7.47;;;16.40;72.20;;;;;;5050910;28;20473;-62
2021/09/25 04:23:11;;;;;;;10.15;6.70;;;16.40;72.20;;;;;;5033407;28;20017;-61
2021/09/25 04:25:37;;;;;;;10.50;6.88;;;16.40;72.30;;;;;;5051206;28;20392;-62
2021/09/25 04:28:06;;;;;;;9.48;6.80;;;16.30;72.40;;;;;;5051962;28;20071;-62
2021/09/25 04:30:34;;;;;;;9.25;7.38;;;16.30;72.40;;;;;;5051933;28;20075;-62
2021/09/25 04:33:00;;;;;;;10.80;7.10;;;16.30;72.50;;;;;;5052083;28;20085;-61
2021/09/25 04:35:26;;;;;;;12.05;6.53;;;16.30;72.50;;;;;;5051280;28;20438;-62
2021/09/25 04:37:52;;;;;;;9.10;6.90;;;16.30;72.50;;;;;;5033341;28;20095;-61
2021/09/25 04:40:18;;;;;;;8.75;6.85;;;16.30;72.50;;;;;;5051710;28;20044;-62
2021/09/25 04:42:44;;;;;;;8.88;6.57;;;16.30;72.50;;;;;;5033225;28;20432;-62
2021/09/25 04:45:12;;;;;;;8.38;6.50;;;16.30;72.60;;;;;;5051714;28;20032;-62
2021/09/25 04:47:43;;;;;;;10.20;6.82;;;16.30;72.60;;;;;;5051102;28;20031;-62
2021/09/25 04:50:11;;;;;;;7.72;6.80;;;16.30;72.50;;;;;;5033042;28;20027;-62
2021/09/25 04:52:37;;;;;;;8.70;7.10;;;16.30;72.50;;;;;;5032778;28;20031;-62
2021/09/25 04:55:04;;;;;;;7.95;5.95;;;16.30;72.60;;;;;;5051354;28;20067;-61
2021/09/25 04:57:29;;;;;;;10.13;6.82;;;16.20;72.60;;;;;;5032499;28;20078;-61
2021/09/25 04:59:55;;;;;;;7.30;5.72;;;16.20;72.90;;;;;;5050697;28;20025;-62
2021/09/25 05:02:21;;;;;;;9.82;6.47;;;16.20;73.00;;;;;;5033224;28;20531;-62
2021/09/25 05:04:47;;;;;;;8.32;6.47;;;16.10;73.00;;;;;;5032672;28;20033;-62
2021/09/25 05:07:12;;;;;;;9.23;6.88;;;16.10;73.10;;;;;;5032913;28;20094;-62
2021/09/25 05:09:38;;;;;;;8.05;6.63;;;16.10;73.10;;;;;;5050275;28;20024;-62
2021/09/25 05:12:05;;;;;;;7.97;6.25;;;16.20;73.00;;;;;;5050323;28;20479;-56
2021/09/25 05:14:31;;;;;;;8.50;6.28;;;16.20;73.10;;;;;;5051253;28;20021;-60
2021/09/25 05:16:57;;;;;;;8.30;6.28;;;16.20;73.00;;;;;;5032459;28;20405;-60
2021/09/25 05:19:23;;;;;;;8.73;5.90;;;16.20;73.00;;;;;;5051273;28;20029;-61
2021/09/25 05:21:49;;;;;;;8.38;6.32;;;16.20;72.90;;;;;;5030159;28;20052;-60
2021/09/25 05:24:14;;;;;;;9.65;6.63;;;16.30;72.80;;;;;;5035208;28;20111;-61
2021/09/25 05:26:41;;;;;;;9.73;6.60;;;16.30;72.60;;;;;;5029904;28;20474;-62
2021/09/25 05:29:08;;;;;;;7.82;6.95;;;16.40;72.60;;;;;;5013326;28;20026;-61
2021/09/25 05:31:34;;;;;;;9.25;6.00;;;16.40;72.50;;;;;;5030855;28;20037;-61
2021/09/25 05:34:00;;;;;;;10.38;7.00;;;16.50;72.30;;;;;;5030252;28;20025;-61
2021/09/25 05:36:26;;;;;;;8.98;6.65;;;16.50;72.20;;;;;;5013352;28;20108;-61
2021/09/25 09:41:53;;;;;;;6.85;4.40;;;23.20;50.30;;;;;;5119739;27;20452;-65
2021/09/25 09:44:29;;;;;;;4.93;4.25;;;25.00;46.90;;;;;;5123599;27;20027;-60
2021/09/25 09:46:59;;;;;;;5.47;4.82;;;25.10;46.40;;;;;;5121717;27;20051;-64
2021/09/25 09:49:31;;;;;;;8.43;5.10;;;25.20;46.30;;;;;;5122953;27;20024;-66
2021/09/25 09:52:08;;;;;;;7.05;5.30;;;25.30;46.00;;;;;;5124386;27;20458;-60
2021/09/25 09:54:39;;;;;;;7.88;4.80;;;25.40;46.00;;;;;;5125704;27;20027;-66
2021/09/25 09:57:19;;;;;;;8.35;4.75;;;25.50;46.00;;;;;;5121305;27;20023;-67
2021/09/25 09:59:48;;;;;;;7.45;4.63;;;25.60;45.70;;;;;;5128178;27;20023;-70
2021/09/25 10:02:15;;;;;;;9.73;4.63;;;25.60;45.40;;;;;;5134698;27;20039;-71
2021/09/25 10:04:41;;;;;;;6.20;5.10;;;25.60;45.30;;;;;;5140028;27;20339;-70
2021/09/25 10:07:07;;;;;;;7.65;4.32;;;25.60;45.30;;;;;;5130039;27;20082;-72
2021/09/25 10:09:35;;;;;;;7.65;4.72;;;25.60;45.30;;;;;;5143242;27;20043;-68
2021/09/25 10:12:08;;;;;;;6.40;3.80;;;25.60;45.10;;;;;;5136797;27;20049;-69
2021/09/25 10:14:37;;;;;;;6.10;4.50;;;25.60;44.90;;;;;;5133600;27;20046;-69
2021/09/25 10:17:10;;;;;;;6.18;4.68;;;25.60;45.10;;;;;;5144239;27;20023;-70
2021/09/25 10:19:38;;;;;;;6.43;5.10;;;25.60;44.90;;;;;;5133792;27;20027;-69
2021/09/25 10:22:12;;;;;;;7.85;6.03;;;25.70;44.70;;;;;;5137216;27;20035;-69
2021/09/25 10:24:44;;;;;;;6.32;4.05;;;25.80;44.80;;;;;;5132547;27;20062;-71
2021/09/25 10:27:11;;;;;;;7.25;4.95;;;25.80;45.00;;;;;;5142748;27;20023;-69
2021/09/25 10:29:50;;;;;;;6.30;5.00;;;25.80;44.40;;;;;;5125928;28;20046;-69
2021/09/25 10:32:29;;;;;;;5.65;4.47;;;25.80;44.30;;;;;;5125229;28;20027;-63
2021/09/25 10:35:17;;;;;;;4.80;3.95;;;25.80;44.50;;;;;;5121590;27;20020;-69
2021/09/25 10:37:51;;;;;;;5.78;4.32;;;25.80;44.30;;;;;;5124575;28;20050;-70
2021/09/25 10:40:25;;;;;;;5.25;4.10;;;25.80;44.40;;;;;;5121861;28;20126;-65
2021/09/25 10:43:13;;;;;;;6.47;5.15;;;25.90;44.00;;;;;;5112662;27;20027;-50
2021/09/25 10:45:39;;;;;;;6.78;4.78;;;25.90;44.20;;;;;;5110567;28;20453;-50
2021/09/25 10:48:05;;;;;;;5.72;4.30;;;26.00;44.30;;;;;;5112118;28;20106;-50
2021/09/25 10:50:33;;;;;;;5.75;4.72;;;26.10;44.00;;;;;;5111104;28;20202;-63
2021/09/25 10:53:22;;;;;;;12.38;8.02;;;26.30;43.60;;;;;;5110946;28;20062;-68
2021/09/25 10:55:49;;;;;;;8.02;4.65;;;26.30;43.50;;;;;;5112298;28;20413;-50
2021/09/25 10:58:18;;;;;;;6.82;4.60;;;26.40;43.30;;;;;;5110874;28;20027;-58
2021/09/25 11:00:58;;;;;;;4.97;4.15;;;26.40;43.10;;;;;;5110755;28;20023;-53
2021/09/25 11:03:48;;;;;;;6.72;4.85;;;26.50;42.90;;;;;;5111632;28;20034;-51
2021/09/25 11:06:27;;;;;;;7.57;5.13;;;26.60;42.70;;;;;;5106656;28;20016;-63
2021/09/25 11:08:58;;;;;;;6.47;5.45;;;26.60;43.00;;;;;;5109612;28;20016;-63
2021/09/25 11:11:37;;;;;;;6.85;5.00;;;26.70;42.80;;;;;;5110151;28;20035;-62
2021/09/25 11:14:05;;;;;;;6.93;4.38;;;26.80;42.10;;;;;;5109281;28;20023;-56
2021/09/25 11:16:46;;;;;;;5.53;4.40;;;26.90;42.40;;;;;;5111850;28;20028;-56
2021/09/25 11:19:21;;;;;;;7.28;5.43;;;27.00;41.70;;;;;;5110044;28;20049;-62
2021/09/25 11:22:07;;;;;;;6.85;4.63;;;27.00;41.90;;;;;;5113152;28;20023;-53
2021/09/25 11:24:35;;;;;;;5.45;4.72;;;27.10;41.30;;;;;;5107923;28;20633;-55
2021/09/25 11:27:03;;;;;;;25.40;20.95;;;27.10;41.50;;;;;;5109803;28;20038;-52
2021/09/25 11:29:29;;;;;;;9.27;4.50;;;27.10;41.20;;;;;;5108706;28;20107;-68
2021/09/25 11:32:05;;;;;;;9.07;5.82;;;27.20;41.10;;;;;;5112245;28;20024;-68
2021/09/25 11:34:32;;;;;;;17.30;6.50;;;27.20;41.30;;;;;;5110540;28;20080;-68
2021/09/25 11:37:02;;;;;;;7.47;4.85;;;27.40;41.30;;;;;;5126521;27;20027;-68
2021/09/25 11:39:49;;;;;;;5.90;4.40;;;27.50;41.60;;;;;;5131091;27;20111;-69
2021/09/25 11:42:17;;;;;;;9.20;4.88;;;27.50;40.20;;;;;;5130314;27;20057;-69
2021/09/25 11:44:49;;;;;;;5.45;4.47;;;27.50;40.20;;;;;;5117478;27;20020;-69
2021/09/25 11:47:31;;;;;;;8.95;4.50;;;27.50;40.30;;;;;;5091541;28;20024;-69
2021/09/25 11:50:25;;;;;;;5.22;4.22;;;27.60;40.50;;;;;;5091073;28;20028;-70
2021/09/25 11:52:55;;;;;;;5.72;5.05;;;27.70;39.60;;;;;;5089716;28;20027;-68
2021/09/25 11:55:26;;;;;;;5.07;4.30;;;27.80;39.50;;;;;;5089839;28;20115;-68
2021/09/25 11:57:54;;;;;;;5.68;3.97;;;27.80;39.00;;;;;;5090052;28;20028;-69
2021/09/25 12:00:36;;;;;;;5.18;4.57;;;27.80;38.80;;;;;;5091244;28;20064;-68
2021/09/25 12:03:08;;;;;;;7.88;4.40;;;27.80;38.80;;;;;;5091841;28;20100;-68
2021/09/25 12:05:48;;;;;;;8.68;5.53;;;27.90;38.90;;;;;;5091623;28;20103;-69
2021/09/25 12:08:19;;;;;;;9.27;4.20;;;27.90;38.90;;;;;;5089623;28;20031;-68
2021/09/25 12:10:56;;;;;;;7.28;3.88;;;28.00;38.20;;;;;;5089900;28;20032;-68
2021/09/25 12:13:26;;;;;;;7.40;4.82;;;27.90;37.60;;;;;;5089201;28;20028;-68
2021/09/25 12:15:55;;;;;;;5.40;4.03;;;27.90;37.80;;;;;;5089908;28;20024;-69
2021/09/25 12:18:37;;;;;;;6.97;4.18;;;27.90;37.60;;;;;;5091015;28;20028;-69
2021/09/25 12:21:12;;;;;;;4.43;3.40;;;28.00;37.90;;;;;;5091173;28;20063;-69
2021/09/25 12:24:06;;;;;;;6.10;4.50;;;28.10;36.80;;;;;;5089400;28;20465;-69
2021/09/25 12:26:38;;;;;;;7.70;4.03;;;28.00;36.10;;;;;;5101619;28;20106;-70
2021/09/25 12:29:13;;;;;;;4.82;2.78;;;28.00;36.20;;;;;;5109772;28;20175;-68
2021/09/25 12:31:39;;;;;;;4.20;3.40;;;28.00;35.60;;;;;;5092995;28;20044;-68
2021/09/25 12:34:17;;;;;;;4.13;3.30;;;28.00;36.00;;;;;;5111099;27;20446;-68
2021/09/25 12:36:45;;;;;;;3.22;2.53;;;27.90;35.20;;;;;;5108475;27;20019;-68
2021/09/25 12:39:14;;;;;;;6.35;3.30;;;28.00;34.00;;;;;;5106356;28;20524;-67
2021/09/25 12:41:49;;;;;;;4.15;3.47;;;28.00;35.20;;;;;;5108091;28;20400;-67
2021/09/25 12:44:22;;;;;;;6.65;4.55;;;28.10;33.50;;;;;;5110067;28;20453;-68
2021/09/25 12:46:52;;;;;;;2.92;2.42;;;28.10;33.70;;;;;;5110520;28;20539;-68
2021/09/25 12:49:17;;;;;;;6.82;3.33;;;28.10;33.20;;;;;;5109035;28;20481;-68
2021/09/25 12:51:58;;;;;;;3.10;2.80;;;28.10;33.90;;;;;;5110061;28;20023;-68
2021/09/25 12:54:31;;;;;;;6.13;2.92;;;28.10;33.20;;;;;;5088885;28;20093;-70
2021/09/25 12:57:05;;;;;;;3.83;2.53;;;28.00;33.60;;;;;;5103036;28;20062;-69
2021/09/25 12:59:35;;;;;;;4.15;2.90;;;27.90;33.80;;;;;;5109885;28;20445;-68
2021/09/25 13:02:18;;;;;;;5.53;2.80;;;27.90;32.80;;;;;;5109369;28;20090;-60
2021/09/25 13:04:48;;;;;;;6.28;2.90;;;28.00;35.60;;;;;;5110354;28;20027;-69
2021/09/25 13:07:32;;;;;;;5.32;2.88;;;28.00;34.30;;;;;;5109494;28;20027;-70
2021/09/25 13:10:03;;;;;;;3.90;3.10;;;27.90;33.80;;;;;;5106605;28;20069;-71
2021/09/25 13:12:37;;;;;;;6.80;3.13;;;27.90;34.40;;;;;;5108492;28;20031;-69
2021/09/25 13:15:10;;;;;;;3.42;3.03;;;27.90;34.50;;;;;;5109523;28;20028;-71
2021/09/25 13:17:41;;;;;;;2.70;2.40;;;28.00;35.50;;;;;;5109822;28;20030;-70
2021/09/25 13:20:10;;;;;;;8.57;3.03;;;28.00;33.00;;;;;;5108960;28;20778;-69
2021/09/25 13:22:36;;;;;;;6.78;3.72;;;28.10;34.30;;;;;;5100547;28;20114;-71
2021/09/25 13:25:04;;;;;;;8.82;3.40;;;28.10;36.40;;;;;;5109378;28;20024;-71
2021/09/25 13:30:16;;;;;;;3.95;2.83;;;28.10;35.20;;;;;;5103584;28;20053;-68
2021/09/25 13:32:43;;;;;;;9.05;5.22;;;28.10;33.40;;;;;;5110091;28;20024;-70
2021/09/25 13:35:10;;;;;;;4.30;2.58;;;28.10;33.40;;;;;;5110004;28;20020;-69
2021/09/25 13:37:36;;;;;;;4.38;2.90;;;28.20;32.20;;;;;;5109246;28;20028;-69
2021/09/25 13:40:04;;;;;;;3.75;3.00;;;28.60;33.30;;;;;;5109656;27;20047;-70
2021/09/25 13:42:30;;;;;;;3.30;2.42;;;29.10;32.20;;;;;;5106330;28;20028;-71
2021/09/25 13:44:56;;;;;;;3.88;2.75;;;29.10;31.30;;;;;;5097175;28;20027;-68
2021/09/25 13:47:42;;;;;;;3.83;2.83;;;29.00;31.10;;;;;;5107444;28;20028;-71
2021/09/25 13:50:08;;;;;;;7.40;3.08;;;29.00;31.20;;;;;;5108615;28;20035;-70
2021/09/25 13:52:34;;;;;;;6.18;2.88;;;28.90;31.70;;;;;;5107913;28;20019;-71
2021/09/25 13:55:19;;;;;;;5.05;3.70;;;28.80;31.40;;;;;;5108191;28;20031;-70
2021/09/25 13:57:45;;;;;;;9.70;3.20;;;28.70;31.30;;;;;;5107977;28;20036;-68
2021/09/25 14:00:12;;;;;;;4.03;2.60;;;28.70;31.90;;;;;;5108551;28;20413;-71
2021/09/25 14:02:38;;;;;;;3.97;2.78;;;28.60;32.60;;;;;;5109437;28;20042;-69
2021/09/25 14:05:04;;;;;;;4.32;2.70;;;28.40;32.70;;;;;;5109638;28;20385;-69
2021/09/25 14:07:30;;;;;;;5.55;3.22;;;28.30;33.00;;;;;;5107757;28;20352;-72
2021/09/25 14:09:55;;;;;;;5.22;2.75;;;28.20;32.90;;;;;;5110392;28;20478;-70
2021/09/25 14:12:22;;;;;;;4.18;3.30;;;28.20;32.90;;;;;;5102241;28;20028;-70
2021/09/25 14:14:50;;;;;;;6.20;2.72;;;28.10;35.00;;;;;;5109484;28;20039;-70
2021/09/25 14:17:16;;;;;;;4.40;2.85;;;28.10;33.90;;;;;;5111528;27;20028;-70
2021/09/25 14:19:42;;;;;;;8.32;3.85;;;28.10;32.90;;;;;;5112178;27;20106;-70
2021/09/25 14:22:08;;;;;;;3.50;2.30;;;28.10;32.90;;;;;;5111372;28;20058;-70
2021/09/25 14:24:34;;;;;;;4.07;3.10;;;28.00;32.80;;;;;;5111399;28;20172;-71
2021/09/25 14:27:00;;;;;;;7.40;3.72;;;27.90;33.60;;;;;;5112641;28;20365;-69
2021/09/25 14:29:27;;;;;;;2.90;2.45;;;27.90;32.90;;;;;;5097268;28;20107;-71
2021/09/25 14:31:53;;;;;;;3.97;2.58;;;27.80;32.80;;;;;;5092721;28;20183;-69
2021/09/25 14:34:19;;;;;;;3.63;3.08;;;27.70;32.60;;;;;;5112046;27;20116;-75
2021/09/25 14:36:45;;;;;;;3.33;2.55;;;27.70;32.60;;;;;;5116838;27;20156;-64
2021/09/25 14:39:11;;;;;;;3.85;2.63;;;27.60;32.20;;;;;;5112953;27;20095;-71
2021/09/25 14:41:37;;;;;;;4.60;2.50;;;27.60;33.20;;;;;;5117318;27;20529;-75
2021/09/25 14:44:04;;;;;;;4.70;2.75;;;27.60;33.30;;;;;;5113195;28;20051;-75
2021/09/25 14:46:31;;;;;;;2.78;2.47;;;27.50;33.60;;;;;;5091206;27;20055;-67
2021/09/25 14:48:57;;;;;;;5.82;2.90;;;27.40;33.10;;;;;;5109615;27;20127;-66
2021/09/25 14:51:24;;;;;;;3.53;2.60;;;27.40;34.40;;;;;;5108587;27;20051;-69
2021/09/25 14:53:50;;;;;;;3.63;2.65;;;27.40;34.00;;;;;;5113418;27;20020;-72
2021/09/25 14:56:18;;;;;;;6.55;3.90;;;27.30;34.20;;;;;;5114888;27;20114;-74
2021/09/25 14:58:44;;;;;;;5.00;4.20;;;27.30;35.20;;;;;;5110850;27;20127;-64
2021/09/25 15:01:11;;;;;;;3.40;2.13;;;27.20;34.70;;;;;;5111422;27;20031;-71
2021/09/25 15:03:37;;;;;;;5.72;2.70;;;27.20;34.00;;;;;;5112409;27;20602;-73
2021/09/25 15:06:07;;;;;;;7.45;4.03;;;27.20;35.90;;;;;;5111876;27;20035;-70
2021/09/25 15:08:34;;;;;;;10.57;3.33;;;27.20;35.80;;;;;;5116304;27;20031;-65
2021/09/25 15:11:06;;;;;;;5.93;3.78;;;27.10;36.50;;;;;;5109329;27;20058;-67
2021/09/25 15:13:33;;;;;;;5.85;3.35;;;27.10;35.70;;;;;;5108278;27;20060;-66
2021/09/25 15:15:59;;;;;;;5.13;2.80;;;27.00;35.10;;;;;;5113458;27;20110;-67
2021/09/25 15:18:25;;;;;;;4.32;2.67;;;26.90;35.60;;;;;;5108239;27;20032;-67
2021/09/25 15:20:51;;;;;;;15.50;11.88;;;26.90;34.70;;;;;;5111773;27;20361;-69
2021/09/25 15:23:17;;;;;;;17.65;10.48;;;26.80;34.30;;;;;;5110626;27;20012;-65
2021/09/25 15:25:44;;;;;;;13.63;9.07;;;26.80;35.00;;;;;;5108441;28;20059;-66
2021/09/25 15:28:11;;;;;;;12.02;8.50;;;26.80;34.80;;;;;;5108121;27;20134;-69
2021/09/25 15:30:37;;;;;;;6.78;4.53;;;26.70;35.50;;;;;;5112583;27;20034;-67
2021/09/25 15:33:03;;;;;;;7.38;5.15;;;26.70;35.20;;;;;;5110384;27;20019;-73
2021/09/25 15:35:29;;;;;;;6.05;4.43;;;26.60;36.80;;;;;;5112605;27;20437;-68
2021/09/25 15:37:54;;;;;;;7.43;4.13;;;26.50;38.30;;;;;;5109870;28;20359;-70
2021/09/25 15:40:39;;;;;;;9.02;3.30;;;26.50;39.70;;;;;;5110156;27;20056;-66
2021/09/25 15:43:05;;;;;;;4.97;3.47;;;26.40;41.00;;;;;;5109121;28;20027;-69
2021/09/25 15:45:31;;;;;;;8.85;3.40;;;26.30;41.20;;;;;;5111139;27;20032;-73
2021/09/25 15:47:58;;;;;;;7.25;3.67;;;26.30;41.50;;;;;;5115829;27;20099;-68
2021/09/25 15:50:25;;;;;;;7.78;3.47;;;26.20;41.70;;;;;;5111796;27;20072;-69
2021/09/25 15:52:52;;;;;;;6.40;3.75;;;26.10;42.10;;;;;;5108452;27;20063;-69
2021/09/25 15:55:20;;;;;;;7.40;4.30;;;26.10;42.40;;;;;;5108610;28;20055;-76
2021/09/25 15:57:46;;;;;;;7.90;4.80;;;26.10;42.70;;;;;;5111785;27;20035;-70
2021/09/25 16:00:14;;;;;;;6.70;4.55;;;26.00;42.60;;;;;;5108519;27;20470;-72
2021/09/25 16:02:40;;;;;;;17.85;4.60;;;26.00;42.90;;;;;;5107811;28;20042;-71
2021/09/25 16:05:06;;;;;;;9.73;5.13;;;26.00;43.40;;;;;;5106120;28;20015;-72
2021/09/25 16:07:32;;;;;;;9.35;6.28;;;25.90;43.40;;;;;;5108180;28;20024;-68
2021/09/25 16:09:58;;;;;;;8.07;5.05;;;25.90;43.70;;;;;;5108961;28;20039;-67
2021/09/25 16:12:24;;;;;;;5.78;5.05;;;25.80;43.70;;;;;;5108850;27;20028;-68
2021/09/25 16:14:50;;;;;;;7.93;5.30;;;25.80;43.80;;;;;;5111240;27;20075;-71
2021/09/25 16:17:20;;;;;;;10.10;6.43;;;25.70;44.00;;;;;;5110300;27;20028;-66
2021/09/25 16:19:48;;;;;;;9.23;4.65;;;25.60;44.00;;;;;;5109379;28;20067;-70
2021/09/25 16:22:14;;;;;;;9.40;4.90;;;25.60;44.20;;;;;;5112036;27;20042;-66
2021/09/25 16:24:41;;;;;;;5.85;4.35;;;25.50;44.40;;;;;;5107037;27;20016;-70
2021/09/25 16:27:07;;;;;;;7.30;4.65;;;25.50;44.60;;;;;;5109879;27;20027;-67
2021/09/25 16:29:33;;;;;;;6.82;3.97;;;25.40;44.80;;;;;;5110845;28;20104;-64
2021/09/25 16:32:02;;;;;;;6.78;4.45;;;25.40;45.00;;;;;;5107960;27;20033;-67
2021/09/25 16:34:31;;;;;;;13.73;6.65;;;25.30;45.10;;;;;;5110536;27;20368;-72
2021/09/25 16:36:58;;;;;;;9.48;5.75;;;25.30;45.30;;;;;;5087330;28;20032;-68
2021/09/25 16:39:24;;;;;;;7.22;4.50;;;25.30;45.50;;;;;;5109672;27;20027;-68
2021/09/25 16:41:50;;;;;;;7.38;4.70;;;25.20;45.70;;;;;;5088609;28;20138;-66
2021/09/25 16:44:16;;;;;;;12.25;6.55;;;25.20;45.90;;;;;;5091559;28;20028;-68
2021/09/25 16:46:42;;;;;;;9.95;5.15;;;25.10;46.00;;;;;;5087214;28;20108;-68
2021/09/25 16:49:10;;;;;;;9.50;5.97;;;25.10;46.20;;;;;;5085223;28;20024;-67
2021/09/25 16:51:37;;;;;;;8.10;4.40;;;25.00;46.40;;;;;;5087087;28;20107;-68
2021/09/25 16:54:07;;;;;;;8.15;5.93;;;25.00;46.50;;;;;;5084551;28;20034;-67
2021/09/25 16:56:38;;;;;;;7.97;4.97;;;24.90;46.70;;;;;;5088308;28;20115;-68
2021/09/25 16:59:05;;;;;;;12.95;7.40;;;24.80;46.80;;;;;;5087990;28;20024;-68